Terminal Aerodrome Forecast
Issued by NWS Charleston, WV

Current Version | Previous Version | Graphics & Text | Print | Product List | Glossary On
Versions: 1 2 3 4 5 6 7 8 9 10 11 12 13 14 15 16 17 18 19 20 21 22 23 24 25 26 27 28
000
FTUS41 KRLX 252200 AAC
TAFHTS
TAF AMD
KHTS 252229Z 2522/2618 05007KT 4SM SHRA VCTS BKN005 OVC025CB
     FM260400 03007KT 3SM SHRA BR OVC006
     FM260900 35007KT P6SM OVC030
     FM261500 36004G11KT P6SM SCT045=

USA.gov is the U.S. government's official web portal to all federal, state and local government web resources and services.